Aérodrome :
LOGIN :

S'inscrire | Disclaimer

   EN    FR    IT 

 










Légende :    VFR   VFR Marginal   IFR   IFR Intensif   IFR Très Intensif
Visi : 
Plafond : 
>= 8 km
>= 3000ft
5 à 8 km
1000 à 3000 ft
1500m à 5 km
500 à 1000 ft
800 à 1500m
200 à 500 ft
< 800m
< 200 ft
Symboles :   Orages  Brouillard  Fortes neiges  Fortes précipitations  Vent > 20 kt
SIGMETs :   Divers  Orages  Givrage  Turbulence  Onde Orograph.  Cendres Volcan.







- Altitude de l'aérodrome : 3 ft
- Code IATA : LWR


EHLW - Leuuwarden Air Base

DERNIER METAR :
  • 210955Z AUTO 30005KT 260V360 9999 SCT038 SCT046 18/12 Q1023 BLU 29005KT 9999 SCT025

METARs EXPIRÉS :
  • 210925Z AUTO 31005KT 270V360 9999 FEW025 18/13 Q1023 BLU 29005KT 9999 SCT025
  • 210904Z AUTO 30006KT 240V340 9999 SCT023 18/12 Q1023 WHT 29005KT 9999 SCT025
  • 210855Z AUTO 29006KT 260V360 9999 FEW024 17/12 Q1023 BLU 29005KT 9999 SCT025
  • 210835Z AUTO 29007KT 260V330 9999 NCD 17/12 Q1023 BLU 29005KT 9999 SCT025
  • 210830Z AUTO 30007KT 260V330 9999 FEW023 17/12 Q1023 BLU 29005KT 9999 SCT025
  • 210813Z AUTO 30005KT 240V320 9999 FEW024 17/12 Q1023 BLU 29005KT 9999 SCT025
  • 210805Z AUTO 30006KT 250V320 9999 FEW021 BKN025 16/12 Q1023 BLU 29005KT 9999 SCT025
  • 210756Z AUTO 28005KT 210V310 9999 SCT021 BKN025 17/13 Q1023 WHT 29005KT 9999 SCT025
  • 210725Z AUTO 27004KT 9999 NCD 16/13 Q1023 BLU 29005KT 9999 SCT025
  • 210708Z AUTO 26003KT 220V280 9999 FEW029 16/13 Q1023 BLU 29005KT 9999 SCT025

TAF TAF EHLW
Valide du 21 à 09h jusqu'au 21 à 21h UTC


210749Z 2109/2121 30006KT 9999 SCT025
BECMG 2116/2119 36004KT
Pas de NOTAMs connus pour ce terrain.



MET'MAP, la Météo Aéronautique d'un coup d'oeil ! - Copyright ORBIFLY Décembre 2007 - Disclaimer

ORBIFLY MET'MAP TEAM :

Programmation & Développement : Alexandra Zaïnal
Conception & Développement : Baudouin d'Aumeries
Co-Programmation & Développement : Marc-Olivier Méhu
Soutien technique & logistique : Manuel Goepfert

Contact : metmap@orbifly.com




SOURCES & CREDITS :

   NOAA